KEYW

Details ICAO KEYW (EYW)
Name Key West Intl
Region United States
Timezone America/New_York (UTC-4.0)
Plans Departing 338
Arriving 514
Stats Elevation 2 ft / 1 m (AMSL)
Location 24.556124° -81.759546°
Runways 1
Magnetic Variation 5.592° W
Sunrise 2018-05-21 10:42:22 UTC / 2018-05-21 06:42:22 Local
Sunset 2018-05-22 00:07:47 UTC / 2018-05-21 20:07:47 Local
Advertisement - Login to hide

Runways

ID Width Length Bearing (true) Bearing (mag) Surface Threshold Offset Overrun Length
09 100 ft / 30 m 4,794 ft / 1,461 m 89.38° 94.97° Asphalt 151 ft / 46 m 0 ft / 0 m
27 100 ft / 30 m 4,794 ft / 1,461 m 269.39° 274.98° Asphalt 151 ft / 46 m 0 ft / 0 m

Map

Weather


0- 5 10 15 20 25 30 35+ Temperature / ° C

Clouds and Precipitation
Forecast for 2018-05-21 06:00 UTC. Updated 32 minutes ago

Ground ~20,000 ft ~40,000 ft Winds

METAR

KEYW 210453Z AUTO 12015KT 10SM FEW022 26/24 A3001 RMK AO2 SLP160 T02610244 402830228

TAF

KEYW 202333Z 2100/2124 11013G19KT P6SM FEW015 BKN150 FM210400 12011G16KT P6SM VCSH SCT015 BKN050 OVC100

Frequencies

Recorded 119.65 MHz ASOS
Unicom 118.20 MHz CTAF
Clearance 121.90 MHz CLNC DEL
Tower 118.20 MHz TWR
Recorded 119.67 MHz ATIS
Unicom 122.95 MHz UNICOM
Ground 121.90 MHz GND
Approach 124.45 MHz NAVY KEY WEST
Warning: Do not use this data for real-world aviation or navigation. No guarantee of current accuracy is given.